createdAt,value
2019-02-14T00:01:15.362Z,1.10
2019-02-14T00:03:44.465Z,1.10
2019-02-14T00:06:13.642Z,1.20
2019-02-14T00:08:42.738Z,1.20
2019-02-14T00:11:11.898Z,1.20
2019-02-14T00:13:41.011Z,1.20
2019-02-14T00:16:10.146Z,1.20
2019-02-14T00:18:40.095Z,1.10
2019-02-14T00:21:09.170Z,1.10
2019-02-14T00:23:38.256Z,1.00
2019-02-14T00:26:07.333Z,1.00
2019-02-14T00:28:36.422Z,1.00
2019-02-14T00:31:05.505Z,1.00
2019-02-14T00:33:34.584Z,1.00
2019-02-14T00:36:03.667Z,1.00
2019-02-14T00:38:32.781Z,0.90
2019-02-14T00:41:01.874Z,0.90
2019-02-14T00:43:31.008Z,0.90
2019-02-14T00:46:00.085Z,0.90
2019-02-14T00:48:29.206Z,0.90
2019-02-14T00:50:58.279Z,0.90
2019-02-14T00:53:27.390Z,0.80
2019-02-14T00:55:56.490Z,0.80
2019-02-14T00:58:25.573Z,0.80
2019-02-14T01:00:54.668Z,0.80
2019-02-14T01:03:23.762Z,0.70
2019-02-14T01:05:52.851Z,0.60
2019-02-14T01:08:21.951Z,0.60
2019-02-14T01:10:51.114Z,0.60
2019-02-14T01:13:20.308Z,0.60
2019-02-14T01:15:49.463Z,0.60
2019-02-14T01:18:18.566Z,0.50
2019-02-14T01:20:47.738Z,0.50
2019-02-14T01:23:16.868Z,0.40
2019-02-14T01:25:45.956Z,0.40
2019-02-14T01:28:15.132Z,0.40
2019-02-14T01:30:44.306Z,0.50
2019-02-14T01:33:13.410Z,0.50
2019-02-14T01:35:42.509Z,0.50
2019-02-14T01:38:11.605Z,0.40
2019-02-14T01:40:40.729Z,0.40
2019-02-14T01:43:09.903Z,0.40
2019-02-14T01:45:38.996Z,0.30
2019-02-14T01:48:08.186Z,0.20
2019-02-14T01:50:37.309Z,0.20
2019-02-14T01:53:06.399Z,0.10
2019-02-14T01:55:35.493Z,0.10
2019-02-14T01:58:04.962Z,0.00
2019-02-14T02:00:34.132Z,-0.10
2019-02-14T02:03:03.319Z,-0.10
2019-02-14T02:05:32.480Z,0.00
2019-02-14T02:08:01.607Z,0.00
2019-02-14T02:10:30.683Z,0.10
2019-02-14T02:12:59.817Z,0.10
2019-02-14T02:15:29.031Z,0.10
2019-02-14T02:17:58.104Z,0.10
2019-02-14T02:20:33.184Z,0.00
2019-02-14T02:22:58.052Z,0.00
2019-02-14T02:25:27.179Z,-0.10
2019-02-14T02:27:56.335Z,-0.20
2019-02-14T02:30:25.436Z,-0.30
2019-02-14T02:32:54.508Z,-0.40
2019-02-14T02:35:23.579Z,-0.40
2019-02-14T02:37:52.675Z,-0.40
2019-02-14T02:40:21.782Z,-0.50
2019-02-14T02:42:50.871Z,-0.60
2019-02-14T02:45:19.975Z,-0.60
2019-02-14T02:47:49.050Z,-0.60
2019-02-14T02:50:18.117Z,-0.70
2019-02-14T02:52:47.211Z,-0.70
2019-02-14T02:55:16.329Z,-0.70
2019-02-14T02:57:45.365Z,-0.70
2019-02-14T03:00:16.260Z,-0.70
2019-02-14T03:02:45.358Z,-0.60
2019-02-14T03:05:15.153Z,-0.60
2019-02-14T03:07:44.311Z,-0.70
2019-02-14T03:10:13.627Z,-0.70
2019-02-14T03:12:42.719Z,-0.70
2019-02-14T03:15:12.599Z,-0.70
2019-02-14T03:17:41.684Z,-0.70
2019-02-14T03:20:11.346Z,-0.70
2019-02-14T03:22:40.471Z,-0.70
2019-02-14T03:25:12.408Z,-0.70
2019-02-14T03:27:41.496Z,-0.70
2019-02-14T03:30:11.416Z,-0.80
2019-02-14T03:32:40.650Z,-0.80
2019-02-14T03:35:09.761Z,-0.80
2019-02-14T03:37:38.835Z,-0.80
2019-02-14T03:40:09.281Z,-0.90
2019-02-14T03:42:38.363Z,-0.90
2019-02-14T03:45:10.058Z,-0.90
2019-02-14T03:47:39.224Z,-0.90
2019-02-14T03:50:08.741Z,-0.90
2019-02-14T03:52:37.922Z,-0.90
2019-02-14T03:55:07.091Z,-0.90
2019-02-14T03:57:36.190Z,-0.90
2019-02-14T04:00:09.069Z,-1.00
2019-02-14T04:02:38.517Z,-1.00
2019-02-14T04:05:07.739Z,-1.00
2019-02-14T04:07:36.816Z,-1.00
2019-02-14T04:10:06.311Z,-1.00
2019-02-14T04:12:35.393Z,-1.00
2019-02-14T04:15:04.892Z,-1.00
2019-02-14T04:17:33.963Z,-1.00
2019-02-14T04:20:03.081Z,-1.10
2019-02-14T04:22:32.163Z,-1.10
2019-02-14T04:25:01.262Z,-1.10
2019-02-14T04:27:30.346Z,-1.10
2019-02-14T04:29:59.435Z,-1.10
2019-02-14T04:32:28.493Z,-1.20
2019-02-14T04:34:57.589Z,-1.10
2019-02-14T04:37:26.670Z,-1.10
2019-02-14T04:39:55.782Z,-1.20
2019-02-14T04:42:24.859Z,-1.20
2019-02-14T04:44:53.939Z,-1.20
2019-02-14T04:47:23.031Z,-1.20
2019-02-14T04:49:52.215Z,-1.10
2019-02-14T04:52:21.285Z,-1.20
2019-02-14T04:54:50.482Z,-1.20
2019-02-14T04:57:24.130Z,-1.20
2019-02-14T05:00:03.551Z,-1.20
2019-02-14T05:02:35.864Z,-1.20
2019-02-14T05:05:08.003Z,-1.20
2019-02-14T05:07:43.445Z,-1.20
2019-02-14T05:10:22.331Z,-1.20
2019-02-14T05:12:51.447Z,-1.20
2019-02-14T05:15:20.637Z,-1.30
2019-02-14T05:17:49.791Z,-1.30
2019-02-14T05:20:19.068Z,-1.30
2019-02-14T05:22:48.152Z,-1.30
2019-02-14T05:25:17.284Z,-1.40
2019-02-14T05:27:46.651Z,-1.40
2019-02-14T05:30:15.792Z,-1.30
2019-02-14T05:32:44.873Z,-1.30
2019-02-14T05:35:13.955Z,-1.30
2019-02-14T05:37:43.048Z,-1.30
2019-02-14T05:40:17.872Z,-1.30
2019-02-14T05:42:46.954Z,-1.30
2019-02-14T05:45:16.092Z,-1.30
2019-02-14T05:47:45.183Z,-1.20
2019-02-14T05:50:14.299Z,-1.20
2019-02-14T05:52:43.414Z,-1.30
2019-02-14T05:55:12.662Z,-1.30
2019-02-14T05:57:41.751Z,-1.30
2019-02-14T06:00:12.402Z,-1.40
2019-02-14T06:02:41.587Z,-1.40
2019-02-14T06:05:10.680Z,-1.40
2019-02-14T06:07:39.816Z,-1.40
2019-02-14T06:10:09.176Z,-1.40
2019-02-14T06:12:38.316Z,-1.40
2019-02-14T06:15:07.980Z,-1.40
2019-02-14T06:17:37.077Z,-1.40
2019-02-14T06:20:06.804Z,-1.30
2019-02-14T06:22:35.898Z,-1.30
2019-02-14T06:25:05.383Z,-1.30
2019-02-14T06:27:34.564Z,-1.30
2019-02-14T06:30:03.675Z,-1.20
2019-02-14T06:32:32.800Z,-1.20
2019-02-14T06:35:01.966Z,-1.20
2019-02-14T06:37:31.051Z,-1.20
2019-02-14T06:40:00.296Z,-1.20
2019-02-14T06:42:29.430Z,-1.20
2019-02-14T06:44:58.498Z,-1.20
2019-02-14T06:47:27.594Z,-1.20
2019-02-14T06:49:56.698Z,-1.20
2019-02-14T06:52:25.790Z,-1.20
2019-02-14T06:54:54.879Z,-1.20
2019-02-14T06:57:24.000Z,-1.20
2019-02-14T06:59:53.000Z,-1.20
2019-02-14T07:02:22.081Z,-1.20
2019-02-14T07:04:51.148Z,-1.20
2019-02-14T07:07:20.282Z,-1.20
2019-02-14T07:09:49.357Z,-1.20
2019-02-14T07:12:18.477Z,-1.20
2019-02-14T07:14:47.554Z,-1.20
2019-02-14T07:17:16.614Z,-1.20
2019-02-14T07:19:45.710Z,-1.20
2019-02-14T07:22:14.774Z,-1.20
2019-02-14T07:24:43.848Z,-1.20
2019-02-14T07:27:12.968Z,-1.20
2019-02-14T07:29:42.058Z,-1.10
2019-02-14T07:32:11.162Z,-1.10
2019-02-14T07:34:40.264Z,-1.10
2019-02-14T07:37:09.346Z,-1.00
2019-02-14T07:39:38.438Z,-1.00
2019-02-14T07:42:07.538Z,-0.90
2019-02-14T07:44:36.656Z,-0.90
2019-02-14T07:47:05.776Z,-0.80
2019-02-14T07:49:34.877Z,-0.80
2019-02-14T07:52:03.969Z,-0.70
2019-02-14T07:54:33.043Z,-0.70
2019-02-14T07:57:02.146Z,-0.60
2019-02-14T07:59:31.226Z,-0.50
2019-02-14T08:02:00.414Z,-0.50
2019-02-14T08:04:29.514Z,-0.50
2019-02-14T08:06:58.626Z,-0.40
2019-02-14T08:09:27.774Z,-0.30
2019-02-14T08:11:56.804Z,-0.30
2019-02-14T08:14:25.924Z,-0.20
2019-02-14T08:16:55.036Z,-0.20
2019-02-14T08:19:24.142Z,-0.10
2019-02-14T08:21:53.240Z,-0.10
2019-02-14T08:24:22.332Z,-0.10
2019-02-14T08:26:51.421Z,0.00
2019-02-14T08:29:20.502Z,0.00
2019-02-14T08:31:49.596Z,0.00
2019-02-14T08:34:18.684Z,0.10
2019-02-14T08:36:47.786Z,0.20
2019-02-14T08:39:16.814Z,0.30
2019-02-14T08:41:45.891Z,0.40
2019-02-14T08:44:14.991Z,0.40
2019-02-14T08:46:44.074Z,0.60
2019-02-14T08:49:13.184Z,0.70
2019-02-14T08:51:42.284Z,0.80
2019-02-14T08:54:11.390Z,0.90
2019-02-14T08:56:40.476Z,1.00
2019-02-14T08:59:09.582Z,1.10
2019-02-14T09:01:38.669Z,1.20
2019-02-14T09:04:07.784Z,1.30
2019-02-14T09:06:36.856Z,1.40
2019-02-14T09:09:06.554Z,1.50
2019-02-14T09:11:35.653Z,1.60
2019-02-14T09:14:04.735Z,1.70
2019-02-14T09:16:33.824Z,1.80
2019-02-14T09:19:02.897Z,1.90
2019-02-14T09:21:31.980Z,2.00
2019-02-14T09:24:01.083Z,2.20
2019-02-14T09:26:30.193Z,2.30
2019-02-14T09:28:59.291Z,2.40
2019-02-14T09:31:28.392Z,2.50
2019-02-14T09:33:57.477Z,2.60
2019-02-14T09:36:26.538Z,2.70
2019-02-14T09:38:55.640Z,2.80
2019-02-14T09:41:24.790Z,2.90
2019-02-14T09:43:53.904Z,3.00
2019-02-14T09:46:23.057Z,3.20
2019-02-14T09:48:52.144Z,3.30
2019-02-14T09:51:21.216Z,3.40
2019-02-14T09:53:50.301Z,3.50
2019-02-14T09:56:19.426Z,3.60
2019-02-14T09:58:48.584Z,3.70
2019-02-14T10:01:17.691Z,3.80
2019-02-14T10:03:47.074Z,3.80
2019-02-14T10:06:16.262Z,3.90
2019-02-14T10:08:45.399Z,3.90
2019-02-14T10:11:14.554Z,4.00
2019-02-14T10:13:43.633Z,4.10
2019-02-14T10:16:12.719Z,4.20
2019-02-14T10:18:41.888Z,4.30
2019-02-14T10:21:10.908Z,4.30
2019-02-14T10:23:39.954Z,4.40
2019-02-14T10:26:09.079Z,4.50
2019-02-14T10:28:38.164Z,4.60
2019-02-14T10:31:07.279Z,4.60
2019-02-14T10:33:36.402Z,4.70
2019-02-14T10:36:05.511Z,4.70
2019-02-14T10:38:34.640Z,4.80
2019-02-14T10:41:03.728Z,4.90
2019-02-14T10:43:32.820Z,4.90
2019-02-14T10:46:01.922Z,5.00
2019-02-14T10:48:31.015Z,5.10
2019-02-14T10:51:00.217Z,5.30
2019-02-14T10:53:29.295Z,5.40
2019-02-14T10:55:58.403Z,5.50
2019-02-14T10:58:27.490Z,5.60
2019-02-14T11:00:56.599Z,5.60
2019-02-14T11:03:25.698Z,5.70
2019-02-14T11:05:54.825Z,5.80
2019-02-14T11:08:31.313Z,5.90
2019-02-14T11:10:54.827Z,6.00
2019-02-14T11:13:23.917Z,6.10
2019-02-14T11:15:53.093Z,6.20
2019-02-14T11:18:22.785Z,6.20
2019-02-14T11:20:51.957Z,6.30
2019-02-14T11:23:21.025Z,6.40
2019-02-14T11:25:50.163Z,6.40
2019-02-14T11:28:19.233Z,6.50
2019-02-14T11:30:48.331Z,6.50
2019-02-14T11:33:17.333Z,6.60
2019-02-14T11:35:46.415Z,6.70
2019-02-14T11:38:15.495Z,6.80
2019-02-14T11:40:44.597Z,6.80
2019-02-14T11:43:13.698Z,6.90
2019-02-14T11:45:42.827Z,7.00
2019-02-14T11:48:11.909Z,7.10
2019-02-14T11:50:41.005Z,7.10
2019-02-14T11:53:14.165Z,7.20
2019-02-14T11:55:40.959Z,7.30
2019-02-14T11:58:10.064Z,7.40
2019-02-14T12:00:39.155Z,7.40
2019-02-14T12:03:08.243Z,7.50
2019-02-14T12:05:37.410Z,7.50
2019-02-14T12:08:06.499Z,7.60
2019-02-14T12:10:35.695Z,7.60
2019-02-14T12:13:04.791Z,7.60
2019-02-14T12:15:33.934Z,7.70
2019-02-14T12:18:03.019Z,7.90
2019-02-14T12:20:32.065Z,8.00
2019-02-14T12:23:01.177Z,8.20
2019-02-14T12:25:30.277Z,8.40
2019-02-14T12:27:59.367Z,8.60
2019-02-14T12:30:28.440Z,8.80
2019-02-14T12:32:57.527Z,8.90
2019-02-14T12:35:26.589Z,9.00
2019-02-14T12:37:55.693Z,9.20
2019-02-14T12:40:24.855Z,9.20
2019-02-14T12:42:53.958Z,9.20
2019-02-14T12:45:25.287Z,9.20
2019-02-14T12:47:53.989Z,9.20
2019-02-14T12:50:23.078Z,9.20
2019-02-14T12:52:52.154Z,9.10
2019-02-14T12:55:21.242Z,9.20
2019-02-14T12:57:50.332Z,9.20
2019-02-14T13:00:20.529Z,9.20
2019-02-14T13:02:49.632Z,9.20
2019-02-14T13:05:18.738Z,9.20
2019-02-14T13:07:47.841Z,9.20
2019-02-14T13:10:17.025Z,9.20
2019-02-14T13:12:46.174Z,9.20
2019-02-14T13:15:17.488Z,9.30
2019-02-14T13:17:46.605Z,9.30
2019-02-14T13:20:15.770Z,9.30
2019-02-14T13:22:44.863Z,9.40
2019-02-14T13:25:14.729Z,9.40
2019-02-14T13:27:43.820Z,9.40
2019-02-14T13:30:15.658Z,9.50
2019-02-14T13:32:44.760Z,9.50
2019-02-14T13:35:14.282Z,9.50
2019-02-14T13:37:43.376Z,9.60
2019-02-14T13:40:12.763Z,9.60
2019-02-14T13:42:41.877Z,9.60
2019-02-14T13:45:12.645Z,9.60
2019-02-14T13:47:41.710Z,9.60
2019-02-14T13:50:11.464Z,9.70
2019-02-14T13:52:40.584Z,9.70
2019-02-14T13:55:09.784Z,9.70
2019-02-14T13:57:38.871Z,9.80
2019-02-14T14:00:11.360Z,9.80
2019-02-14T14:02:40.514Z,9.80
2019-02-14T14:05:09.622Z,9.90
2019-02-14T14:07:40.631Z,9.90
2019-02-14T14:10:09.814Z,9.90
2019-02-14T14:12:38.898Z,9.90
2019-02-14T14:15:08.392Z,10.00
2019-02-14T14:17:37.586Z,10.00
2019-02-14T14:20:06.704Z,10.10
2019-02-14T14:22:35.791Z,10.10
2019-02-14T14:25:04.928Z,10.20
2019-02-14T14:27:34.194Z,10.30
2019-02-14T14:30:03.530Z,10.20
2019-02-14T14:32:32.689Z,10.20
2019-02-14T14:35:01.795Z,10.20
2019-02-14T14:37:30.870Z,10.20
2019-02-14T14:39:59.984Z,10.10
2019-02-14T14:42:54.055Z,10.10
2019-02-14T14:45:33.672Z,10.20
2019-02-14T14:48:02.874Z,10.20
2019-02-14T14:50:31.975Z,10.20
2019-02-14T14:53:01.074Z,10.20
2019-02-14T14:55:30.155Z,10.20
2019-02-14T14:57:59.256Z,10.30
2019-02-14T15:00:28.329Z,10.20
2019-02-14T15:02:57.414Z,10.20
2019-02-14T15:05:26.526Z,10.20
2019-02-14T15:07:55.631Z,10.20
2019-02-14T15:10:24.884Z,10.20
2019-02-14T15:12:54.042Z,10.30
2019-02-14T15:15:23.134Z,10.30
2019-02-14T15:17:52.274Z,10.20
2019-02-14T15:20:21.452Z,10.20
2019-02-14T15:22:50.668Z,10.20
2019-02-14T15:25:19.810Z,10.30
2019-02-14T15:27:48.905Z,10.40
2019-02-14T15:30:18.140Z,10.40
2019-02-14T15:32:47.333Z,10.50
2019-02-14T15:35:16.460Z,10.50
2019-02-14T15:37:47.148Z,10.50
2019-02-14T15:40:16.412Z,10.50
2019-02-14T15:42:45.564Z,10.40
2019-02-14T15:45:14.693Z,10.40
2019-02-14T15:47:43.867Z,10.30
2019-02-14T15:50:12.996Z,10.30
2019-02-14T15:52:42.179Z,10.30
2019-02-14T15:55:11.311Z,10.20
2019-02-14T15:57:42.387Z,10.10
2019-02-14T16:00:11.747Z,10.00
2019-02-14T16:02:40.903Z,9.90
2019-02-14T16:05:10.129Z,9.90
2019-02-14T16:07:41.328Z,9.80
2019-02-14T16:10:18.254Z,9.80
2019-02-14T16:12:42.977Z,9.80
2019-02-14T16:15:11.867Z,9.80
2019-02-14T16:17:40.977Z,9.80
2019-02-14T16:20:10.151Z,9.70
2019-02-14T16:22:40.218Z,9.60
2019-02-14T16:25:10.069Z,9.60
2019-02-14T16:27:39.185Z,9.60
2019-02-14T16:30:10.924Z,9.50
2019-02-14T16:32:40.005Z,9.40
2019-02-14T16:35:09.085Z,9.40
2019-02-14T16:37:38.372Z,9.30
2019-02-14T16:40:08.861Z,9.30
2019-02-14T16:42:38.005Z,9.20
2019-02-14T16:45:07.287Z,9.10
2019-02-14T16:47:36.520Z,9.00
2019-02-14T16:50:06.205Z,8.90
2019-02-14T16:52:35.639Z,8.70
2019-02-14T16:55:04.879Z,8.60
2019-02-14T16:57:34.065Z,8.50
2019-02-14T17:00:03.261Z,8.30
2019-02-14T17:02:32.359Z,8.20
2019-02-14T17:05:01.525Z,8.10
2019-02-14T17:07:30.655Z,7.90
2019-02-14T17:09:59.813Z,7.90
2019-02-14T17:12:28.899Z,7.80
2019-02-14T17:14:57.988Z,7.70
2019-02-14T17:17:28.051Z,7.60
2019-02-14T17:19:57.335Z,7.50
2019-02-14T17:22:26.368Z,7.30
2019-02-14T17:24:55.486Z,7.20
2019-02-14T17:27:24.619Z,7.10
2019-02-14T17:29:53.792Z,7.00
2019-02-14T17:32:22.874Z,6.90
2019-02-14T17:34:52.051Z,6.90
2019-02-14T17:37:21.154Z,6.80
2019-02-14T17:39:50.325Z,6.80
2019-02-14T17:42:19.421Z,6.70
2019-02-14T17:44:48.501Z,6.60
2019-02-14T17:47:17.615Z,6.50
2019-02-14T17:49:46.726Z,6.50
2019-02-14T17:52:15.810Z,6.40
2019-02-14T17:54:44.912Z,6.40
2019-02-14T17:57:14.040Z,6.40
2019-02-14T17:59:43.143Z,6.40
2019-02-14T18:02:12.231Z,6.50
2019-02-14T18:04:41.379Z,6.50
2019-02-14T18:07:10.479Z,6.60
2019-02-14T18:09:39.573Z,6.60
2019-02-14T18:12:08.681Z,6.50
2019-02-14T18:14:37.847Z,6.50
2019-02-14T18:17:06.956Z,6.50
2019-02-14T18:19:36.066Z,6.50
2019-02-14T18:22:05.163Z,6.50
2019-02-14T18:24:34.288Z,6.50
2019-02-14T18:27:03.448Z,6.50
2019-02-14T18:29:32.528Z,6.50
2019-02-14T18:32:01.695Z,6.50
2019-02-14T18:34:30.811Z,6.50
2019-02-14T18:36:59.991Z,6.50
2019-02-14T18:39:29.103Z,6.40
2019-02-14T18:41:58.187Z,6.40
2019-02-14T18:44:27.356Z,6.30
2019-02-14T18:46:56.456Z,6.30
2019-02-14T18:49:25.655Z,6.30
2019-02-14T18:51:54.783Z,6.30
2019-02-14T18:54:23.880Z,6.30
2019-02-14T18:56:53.091Z,6.40
2019-02-14T18:59:22.333Z,6.30
2019-02-14T19:01:51.512Z,6.30
2019-02-14T19:04:20.691Z,6.20
2019-02-14T19:06:49.819Z,6.10
2019-02-14T19:09:18.985Z,6.00
2019-02-14T19:11:48.093Z,6.00
2019-02-14T19:14:17.233Z,5.90
2019-02-14T19:16:46.303Z,5.90
2019-02-14T19:19:15.504Z,5.80
2019-02-14T19:21:44.633Z,5.80
2019-02-14T19:24:13.793Z,5.70
2019-02-14T19:26:42.985Z,5.70
2019-02-14T19:29:12.149Z,5.60
2019-02-14T19:31:41.325Z,5.50
2019-02-14T19:34:10.473Z,5.50
2019-02-14T19:36:39.588Z,5.30
2019-02-14T19:39:08.791Z,5.20
2019-02-14T19:41:37.986Z,5.10
2019-02-14T19:44:07.168Z,5.00
2019-02-14T19:46:36.280Z,4.90
2019-02-14T19:49:05.369Z,4.80
2019-02-14T19:51:34.477Z,4.80
2019-02-14T19:54:03.633Z,4.70
2019-02-14T19:56:32.735Z,4.60
2019-02-14T19:59:01.907Z,4.60
2019-02-14T20:01:31.025Z,4.50
2019-02-14T20:04:00.150Z,4.40
2019-02-14T20:06:29.239Z,4.40
2019-02-14T20:08:58.323Z,4.30
2019-02-14T20:11:36.295Z,4.20
2019-02-14T20:13:58.307Z,4.20
2019-02-14T20:16:27.531Z,4.10
2019-02-14T20:18:56.618Z,4.10
2019-02-14T20:21:25.700Z,4.10
2019-02-14T20:23:54.846Z,4.00
2019-02-14T20:26:23.934Z,4.00
2019-02-14T20:28:53.066Z,4.00
2019-02-14T20:31:22.255Z,4.10
2019-02-14T20:33:51.403Z,4.10
2019-02-14T20:36:20.504Z,4.20
2019-02-14T20:38:49.638Z,4.20
2019-02-14T20:41:19.905Z,4.20
2019-02-14T20:43:49.006Z,4.20
2019-02-14T20:46:18.205Z,4.10
2019-02-14T20:48:47.303Z,4.20
2019-02-14T20:51:16.517Z,4.20
2019-02-14T20:53:45.643Z,4.20
2019-02-14T20:56:14.719Z,4.20
2019-02-14T20:58:44.670Z,4.20
2019-02-14T21:01:13.833Z,4.20
2019-02-14T21:03:42.941Z,4.20
2019-02-14T21:06:16.280Z,4.20
2019-02-14T21:08:45.469Z,4.10
2019-02-14T21:11:14.604Z,4.10
2019-02-14T21:13:43.729Z,4.10
2019-02-14T21:16:13.114Z,4.00
2019-02-14T21:18:42.233Z,4.00
2019-02-14T21:21:11.487Z,3.90
2019-02-14T21:23:40.599Z,3.80
2019-02-14T21:26:09.704Z,3.80
2019-02-14T21:28:38.870Z,3.80
2019-02-14T21:31:07.984Z,3.80
2019-02-14T21:33:37.133Z,3.70
2019-02-14T21:36:06.270Z,3.60
2019-02-14T21:38:35.341Z,3.60
2019-02-14T21:41:04.490Z,3.50
2019-02-14T21:43:33.590Z,3.40
2019-02-14T21:46:02.729Z,3.40
2019-02-14T21:48:31.918Z,3.40
2019-02-14T21:51:01.062Z,3.30
2019-02-14T21:53:30.229Z,3.20
2019-02-14T21:55:59.462Z,3.10
2019-02-14T21:58:28.665Z,3.00
2019-02-14T22:00:57.822Z,3.00
2019-02-14T22:03:27.058Z,3.00
2019-02-14T22:05:56.137Z,3.00
2019-02-14T22:08:25.226Z,2.80
2019-02-14T22:10:54.414Z,2.70
2019-02-14T22:13:24.837Z,2.70
2019-02-14T22:15:54.110Z,2.70
2019-02-14T22:18:23.195Z,2.60
2019-02-14T22:20:52.330Z,2.60
2019-02-14T22:23:21.437Z,2.60
2019-02-14T22:25:50.594Z,2.50
2019-02-14T22:28:19.699Z,2.50
2019-02-14T22:30:48.906Z,2.40
2019-02-14T22:33:18.143Z,2.40
2019-02-14T22:35:47.151Z,2.40
2019-02-14T22:38:16.331Z,2.30
2019-02-14T22:40:45.430Z,2.30
2019-02-14T22:43:14.552Z,2.30
2019-02-14T22:45:43.644Z,2.20
2019-02-14T22:48:12.750Z,2.20
2019-02-14T22:50:41.842Z,2.10
2019-02-14T22:53:10.942Z,2.10
2019-02-14T22:55:40.044Z,2.10
2019-02-14T22:58:09.130Z,2.10
2019-02-14T23:00:42.073Z,2.10
2019-02-14T23:03:11.150Z,2.10
2019-02-14T23:05:40.260Z,2.20
2019-02-14T23:08:09.344Z,2.20
2019-02-14T23:10:38.417Z,2.20
2019-02-14T23:13:07.999Z,2.20
2019-02-14T23:15:37.085Z,2.30
2019-02-14T23:18:06.330Z,2.40
2019-02-14T23:20:35.417Z,2.50
2019-02-14T23:23:04.501Z,2.60
2019-02-14T23:25:33.586Z,2.70
2019-02-14T23:28:02.683Z,2.80
2019-02-14T23:30:31.767Z,2.90
2019-02-14T23:33:01.006Z,2.90
2019-02-14T23:35:30.159Z,3.00
2019-02-14T23:37:59.339Z,3.00
2019-02-14T23:40:28.541Z,3.00
2019-02-14T23:43:04.322Z,3.10
2019-02-14T23:45:28.418Z,3.20
2019-02-14T23:47:57.486Z,3.20
2019-02-14T23:50:26.591Z,3.10
2019-02-14T23:52:55.709Z,3.10
2019-02-14T23:55:24.791Z,3.10
2019-02-14T23:57:53.887Z,3.00
